sensor_id;sensor_type;location;lat;lon;timestamp;P1;durP1;ratioP1;P2;durP2;ratioP2
20478;SDS011;10398;52.490;13.434;2022-07-23T00:01:21;4.95;;;3.38;;
20478;SDS011;10398;52.490;13.434;2022-07-23T00:03:47;7.45;;;3.55;;
20478;SDS011;10398;52.490;13.434;2022-07-23T00:06:13;7.43;;;3.40;;
20478;SDS011;10398;52.490;13.434;2022-07-23T00:08:39;5.65;;;3.35;;
20478;SDS011;10398;52.490;13.434;2022-07-23T00:11:05;6.28;;;3.58;;
20478;SDS011;10398;52.490;13.434;2022-07-23T00:13:31;7.82;;;3.00;;
20478;SDS011;10398;52.490;13.434;2022-07-23T00:15:56;6.65;;;3.40;;
20478;SDS011;10398;52.490;13.434;2022-07-23T00:18:22;9.13;;;3.83;;
20478;SDS011;10398;52.490;13.434;2022-07-23T00:20:47;8.50;;;3.40;;
20478;SDS011;10398;52.490;13.434;2022-07-23T00:23:13;6.38;;;3.20;;
20478;SDS011;10398;52.490;13.434;2022-07-23T00:25:39;5.18;;;3.20;;
20478;SDS011;10398;52.490;13.434;2022-07-23T00:28:05;6.65;;;3.38;;
20478;SDS011;10398;52.490;13.434;2022-07-23T00:30:31;7.70;;;3.35;;
20478;SDS011;10398;52.490;13.434;2022-07-23T00:32:59;11.38;;;5.22;;
20478;SDS011;10398;52.490;13.434;2022-07-23T00:35:27;8.57;;;4.72;;
20478;SDS011;10398;52.490;13.434;2022-07-23T00:37:56;7.85;;;4.53;;
20478;SDS011;10398;52.490;13.434;2022-07-23T00:40:22;7.47;;;4.50;;
20478;SDS011;10398;52.490;13.434;2022-07-23T00:42:48;11.98;;;5.45;;
20478;SDS011;10398;52.490;13.434;2022-07-23T00:45:14;7.88;;;4.05;;
20478;SDS011;10398;52.490;13.434;2022-07-23T00:47:40;8.05;;;3.70;;
20478;SDS011;10398;52.490;13.434;2022-07-23T00:50:06;7.05;;;3.35;;
20478;SDS011;10398;52.490;13.434;2022-07-23T00:52:34;6.95;;;3.75;;
20478;SDS011;10398;52.490;13.434;2022-07-23T00:55:00;9.45;;;3.55;;
20478;SDS011;10398;52.490;13.434;2022-07-23T00:57:26;6.30;;;3.35;;
20478;SDS011;10398;52.490;13.434;2022-07-23T00:59:52;11.70;;;3.80;;
20478;SDS011;10398;52.490;13.434;2022-07-23T01:02:18;8.48;;;3.22;;
20478;SDS011;10398;52.490;13.434;2022-07-23T01:04:43;8.85;;;3.50;;
20478;SDS011;10398;52.490;13.434;2022-07-23T01:07:09;6.22;;;3.17;;
20478;SDS011;10398;52.490;13.434;2022-07-23T01:09:35;9.07;;;3.45;;
20478;SDS011;10398;52.490;13.434;2022-07-23T01:12:03;9.73;;;3.50;;
20478;SDS011;10398;52.490;13.434;2022-07-23T01:14:29;6.53;;;3.60;;
20478;SDS011;10398;52.490;13.434;2022-07-23T01:16:54;7.28;;;3.33;;
20478;SDS011;10398;52.490;13.434;2022-07-23T01:19:20;6.22;;;3.28;;
20478;SDS011;10398;52.490;13.434;2022-07-23T01:21:47;7.80;;;3.40;;
20478;SDS011;10398;52.490;13.434;2022-07-23T01:24:14;4.85;;;2.88;;
20478;SDS011;10398;52.490;13.434;2022-07-23T01:26:41;7.53;;;3.60;;
20478;SDS011;10398;52.490;13.434;2022-07-23T01:29:08;6.18;;;3.30;;
20478;SDS011;10398;52.490;13.434;2022-07-23T01:31:33;4.75;;;2.88;;
20478;SDS011;10398;52.490;13.434;2022-07-23T01:33:59;5.30;;;3.15;;
20478;SDS011;10398;52.490;13.434;2022-07-23T01:36:25;8.60;;;3.70;;
20478;SDS011;10398;52.490;13.434;2022-07-23T01:38:50;5.78;;;3.20;;
20478;SDS011;10398;52.490;13.434;2022-07-23T01:41:16;5.38;;;3.50;;
20478;SDS011;10398;52.490;13.434;2022-07-23T01:43:42;4.97;;;3.05;;
20478;SDS011;10398;52.490;13.434;2022-07-23T01:46:08;7.43;;;3.40;;
20478;SDS011;10398;52.490;13.434;2022-07-23T01:48:34;8.07;;;3.20;;
20478;SDS011;10398;52.490;13.434;2022-07-23T01:50:59;8.20;;;3.05;;
20478;SDS011;10398;52.490;13.434;2022-07-23T01:53:25;5.10;;;3.25;;
20478;SDS011;10398;52.490;13.434;2022-07-23T01:55:51;5.70;;;3.20;;
20478;SDS011;10398;52.490;13.434;2022-07-23T01:58:16;7.22;;;3.30;;
20478;SDS011;10398;52.490;13.434;2022-07-23T02:00:42;7.18;;;3.70;;
20478;SDS011;10398;52.490;13.434;2022-07-23T02:03:08;5.40;;;3.30;;
20478;SDS011;10398;52.490;13.434;2022-07-23T02:05:33;4.40;;;3.00;;
20478;SDS011;10398;52.490;13.434;2022-07-23T02:07:59;8.63;;;3.70;;
20478;SDS011;10398;52.490;13.434;2022-07-23T02:10:25;7.50;;;3.17;;
20478;SDS011;10398;52.490;13.434;2022-07-23T02:12:52;6.18;;;3.53;;
20478;SDS011;10398;52.490;13.434;2022-07-23T02:15:18;6.15;;;3.35;;
20478;SDS011;10398;52.490;13.434;2022-07-23T02:17:43;7.43;;;2.97;;
20478;SDS011;10398;52.490;13.434;2022-07-23T02:20:09;6.15;;;3.55;;
20478;SDS011;10398;52.490;13.434;2022-07-23T02:22:35;5.05;;;3.38;;
20478;SDS011;10398;52.490;13.434;2022-07-23T02:25:02;6.78;;;3.53;;
20478;SDS011;10398;52.490;13.434;2022-07-23T02:27:32;6.85;;;3.30;;
20478;SDS011;10398;52.490;13.434;2022-07-23T02:29:57;6.00;;;3.17;;
20478;SDS011;10398;52.490;13.434;2022-07-23T02:32:23;6.05;;;3.05;;
20478;SDS011;10398;52.490;13.434;2022-07-23T02:34:49;5.53;;;2.80;;
20478;SDS011;10398;52.490;13.434;2022-07-23T02:37:15;5.90;;;2.85;;
20478;SDS011;10398;52.490;13.434;2022-07-23T02:39:41;6.90;;;2.85;;
20478;SDS011;10398;52.490;13.434;2022-07-23T02:42:06;4.28;;;2.70;;
20478;SDS011;10398;52.490;13.434;2022-07-23T02:44:32;5.55;;;3.22;;
20478;SDS011;10398;52.490;13.434;2022-07-23T02:46:58;10.57;;;3.38;;
20478;SDS011;10398;52.490;13.434;2022-07-23T02:49:24;8.82;;;3.70;;
20478;SDS011;10398;52.490;13.434;2022-07-23T02:51:49;7.60;;;3.30;;
20478;SDS011;10398;52.490;13.434;2022-07-23T02:54:15;5.97;;;3.25;;
20478;SDS011;10398;52.490;13.434;2022-07-23T02:56:41;9.90;;;3.17;;
20478;SDS011;10398;52.490;13.434;2022-07-23T02:59:06;6.85;;;2.90;;
20478;SDS011;10398;52.490;13.434;2022-07-23T03:01:32;4.78;;;3.22;;
20478;SDS011;10398;52.490;13.434;2022-07-23T03:03:58;6.85;;;2.97;;
20478;SDS011;10398;52.490;13.434;2022-07-23T03:06:23;6.22;;;2.80;;
20478;SDS011;10398;52.490;13.434;2022-07-23T03:08:49;7.47;;;3.05;;
20478;SDS011;10398;52.490;13.434;2022-07-23T03:11:14;6.30;;;2.67;;
20478;SDS011;10398;52.490;13.434;2022-07-23T03:13:40;7.60;;;2.70;;
20478;SDS011;10398;52.490;13.434;2022-07-23T03:16:06;5.35;;;2.90;;
20478;SDS011;10398;52.490;13.434;2022-07-23T03:18:32;6.68;;;2.88;;
20478;SDS011;10398;52.490;13.434;2022-07-23T03:20:58;4.95;;;2.53;;
20478;SDS011;10398;52.490;13.434;2022-07-23T03:23:24;6.85;;;2.58;;
20478;SDS011;10398;52.490;13.434;2022-07-23T03:25:50;5.07;;;2.72;;
20478;SDS011;10398;52.490;13.434;2022-07-23T03:28:16;5.40;;;2.70;;
20478;SDS011;10398;52.490;13.434;2022-07-23T03:30:46;7.32;;;2.70;;
20478;SDS011;10398;52.490;13.434;2022-07-23T03:33:13;6.55;;;3.00;;
20478;SDS011;10398;52.490;13.434;2022-07-23T03:35:39;4.88;;;2.72;;
20478;SDS011;10398;52.490;13.434;2022-07-23T03:38:05;4.72;;;2.67;;
20478;SDS011;10398;52.490;13.434;2022-07-23T03:40:31;6.82;;;3.03;;
20478;SDS011;10398;52.490;13.434;2022-07-23T03:42:56;4.40;;;2.75;;
20478;SDS011;10398;52.490;13.434;2022-07-23T03:45:22;5.18;;;2.47;;
20478;SDS011;10398;52.490;13.434;2022-07-23T03:47:48;7.70;;;2.65;;
20478;SDS011;10398;52.490;13.434;2022-07-23T03:50:13;4.10;;;2.30;;
20478;SDS011;10398;52.490;13.434;2022-07-23T03:52:39;6.65;;;2.50;;
20478;SDS011;10398;52.490;13.434;2022-07-23T03:55:05;4.03;;;2.03;;
20478;SDS011;10398;52.490;13.434;2022-07-23T03:57:31;6.38;;;2.78;;
20478;SDS011;10398;52.490;13.434;2022-07-23T03:59:57;5.97;;;2.55;;
20478;SDS011;10398;52.490;13.434;2022-07-23T04:02:23;7.82;;;2.28;;
20478;SDS011;10398;52.490;13.434;2022-07-23T04:04:49;3.35;;;2.33;;
20478;SDS011;10398;52.490;13.434;2022-07-23T04:07:14;5.40;;;2.13;;
20478;SDS011;10398;52.490;13.434;2022-07-23T04:09:42;5.68;;;2.42;;
20478;SDS011;10398;52.490;13.434;2022-07-23T04:12:08;4.05;;;2.30;;
20478;SDS011;10398;52.490;13.434;2022-07-23T04:14:34;6.07;;;2.17;;
20478;SDS011;10398;52.490;13.434;2022-07-23T04:17:00;7.85;;;1.98;;
20478;SDS011;10398;52.490;13.434;2022-07-23T04:19:26;3.78;;;1.98;;
20478;SDS011;10398;52.490;13.434;2022-07-23T04:21:52;4.55;;;1.50;;
20478;SDS011;10398;52.490;13.434;2022-07-23T04:24:18;5.85;;;1.70;;
20478;SDS011;10398;52.490;13.434;2022-07-23T04:26:44;4.47;;;1.83;;
20478;SDS011;10398;52.490;13.434;2022-07-23T04:29:10;5.13;;;1.50;;
20478;SDS011;10398;52.490;13.434;2022-07-23T04:31:36;6.68;;;1.70;;
20478;SDS011;10398;52.490;13.434;2022-07-23T04:34:01;5.22;;;1.90;;
20478;SDS011;10398;52.490;13.434;2022-07-23T04:36:27;3.75;;;1.63;;
20478;SDS011;10398;52.490;13.434;2022-07-23T04:38:53;8.60;;;1.63;;
20478;SDS011;10398;52.490;13.434;2022-07-23T04:41:19;9.68;;;2.72;;
20478;SDS011;10398;52.490;13.434;2022-07-23T04:43:44;4.85;;;2.13;;
20478;SDS011;10398;52.490;13.434;2022-07-23T04:46:10;4.78;;;1.67;;
20478;SDS011;10398;52.490;13.434;2022-07-23T04:48:36;2.13;;;1.65;;
20478;SDS011;10398;52.490;13.434;2022-07-23T04:51:01;4.20;;;1.75;;
20478;SDS011;10398;52.490;13.434;2022-07-23T04:53:28;5.38;;;1.70;;
20478;SDS011;10398;52.490;13.434;2022-07-23T04:55:53;6.82;;;1.65;;
20478;SDS011;10398;52.490;13.434;2022-07-23T04:58:19;4.85;;;1.50;;
20478;SDS011;10398;52.490;13.434;2022-07-23T05:00:45;3.90;;;1.60;;
20478;SDS011;10398;52.490;13.434;2022-07-23T05:03:11;5.75;;;1.50;;
20478;SDS011;10398;52.490;13.434;2022-07-23T05:05:37;2.38;;;1.35;;
20478;SDS011;10398;52.490;13.434;2022-07-23T05:08:02;3.97;;;1.70;;
20478;SDS011;10398;52.490;13.434;2022-07-23T05:10:28;6.88;;;1.65;;
20478;SDS011;10398;52.490;13.434;2022-07-23T05:12:54;5.07;;;1.70;;
20478;SDS011;10398;52.490;13.434;2022-07-23T05:15:20;6.15;;;1.40;;
20478;SDS011;10398;52.490;13.434;2022-07-23T05:17:45;5.35;;;1.60;;
20478;SDS011;10398;52.490;13.434;2022-07-23T05:20:11;7.60;;;1.50;;
20478;SDS011;10398;52.490;13.434;2022-07-23T05:22:38;7.45;;;1.35;;
20478;SDS011;10398;52.490;13.434;2022-07-23T05:25:04;2.95;;;1.50;;
20478;SDS011;10398;52.490;13.434;2022-07-23T05:27:30;6.10;;;1.70;;
20478;SDS011;10398;52.490;13.434;2022-07-23T05:29:56;5.13;;;1.30;;
20478;SDS011;10398;52.490;13.434;2022-07-23T05:32:21;5.63;;;1.40;;
20478;SDS011;10398;52.490;13.434;2022-07-23T05:34:47;3.47;;;1.50;;
20478;SDS011;10398;52.490;13.434;2022-07-23T05:37:12;2.83;;;1.35;;
20478;SDS011;10398;52.490;13.434;2022-07-23T05:39:38;4.25;;;1.63;;
20478;SDS011;10398;52.490;13.434;2022-07-23T05:42:04;4.65;;;1.25;;
20478;SDS011;10398;52.490;13.434;2022-07-23T05:44:30;3.38;;;1.55;;
20478;SDS011;10398;52.490;13.434;2022-07-23T05:46:55;6.25;;;1.80;;
20478;SDS011;10398;52.490;13.434;2022-07-23T05:49:21;4.10;;;1.85;;
20478;SDS011;10398;52.490;13.434;2022-07-23T05:51:46;7.15;;;1.92;;
20478;SDS011;10398;52.490;13.434;2022-07-23T05:54:12;6.45;;;2.00;;
20478;SDS011;10398;52.490;13.434;2022-07-23T05:56:38;4.95;;;1.80;;
20478;SDS011;10398;52.490;13.434;2022-07-23T05:59:03;7.55;;;1.65;;
20478;SDS011;10398;52.490;13.434;2022-07-23T06:01:29;7.45;;;1.90;;
20478;SDS011;10398;52.490;13.434;2022-07-23T06:03:55;2.15;;;1.42;;
20478;SDS011;10398;52.490;13.434;2022-07-23T06:06:20;3.70;;;1.70;;
20478;SDS011;10398;52.490;13.434;2022-07-23T06:08:46;5.50;;;2.00;;
20478;SDS011;10398;52.490;13.434;2022-07-23T06:11:12;3.85;;;1.80;;
20478;SDS011;10398;52.490;13.434;2022-07-23T06:13:37;4.25;;;1.98;;
20478;SDS011;10398;52.490;13.434;2022-07-23T06:16:03;3.80;;;1.48;;
20478;SDS011;10398;52.490;13.434;2022-07-23T06:18:29;9.55;;;2.58;;
20478;SDS011;10398;52.490;13.434;2022-07-23T06:20:54;8.67;;;2.20;;
20478;SDS011;10398;52.490;13.434;2022-07-23T06:23:20;9.25;;;2.10;;
20478;SDS011;10398;52.490;13.434;2022-07-23T06:25:46;7.77;;;1.80;;
20478;SDS011;10398;52.490;13.434;2022-07-23T06:28:11;5.90;;;2.10;;
20478;SDS011;10398;52.490;13.434;2022-07-23T06:30:37;5.13;;;1.90;;
20478;SDS011;10398;52.490;13.434;2022-07-23T06:33:04;21.30;;;7.33;;
20478;SDS011;10398;52.490;13.434;2022-07-23T06:35:29;25.27;;;9.90;;
20478;SDS011;10398;52.490;13.434;2022-07-23T06:37:55;10.00;;;4.13;;
20478;SDS011;10398;52.490;13.434;2022-07-23T06:40:21;10.63;;;3.20;;
20478;SDS011;10398;52.490;13.434;2022-07-23T06:42:46;7.83;;;3.13;;
20478;SDS011;10398;52.490;13.434;2022-07-23T06:45:12;4.97;;;2.20;;
20478;SDS011;10398;52.490;13.434;2022-07-23T06:47:37;9.27;;;3.70;;
20478;SDS011;10398;52.490;13.434;2022-07-23T06:50:04;4.87;;;2.10;;
20478;SDS011;10398;52.490;13.434;2022-07-23T06:52:30;9.00;;;2.87;;
20478;SDS011;10398;52.490;13.434;2022-07-23T06:54:56;3.83;;;2.10;;
20478;SDS011;10398;52.490;13.434;2022-07-23T06:57:22;5.47;;;2.33;;
20478;SDS011;10398;52.490;13.434;2022-07-23T06:59:48;5.43;;;2.27;;
20478;SDS011;10398;52.490;13.434;2022-07-23T07:02:13;8.30;;;2.60;;
20478;SDS011;10398;52.490;13.434;2022-07-23T07:04:39;8.70;;;2.67;;
20478;SDS011;10398;52.490;13.434;2022-07-23T07:07:04;6.87;;;2.70;;
20478;SDS011;10398;52.490;13.434;2022-07-23T07:09:30;7.17;;;2.80;;
20478;SDS011;10398;52.490;13.434;2022-07-23T07:11:56;6.30;;;2.97;;
20478;SDS011;10398;52.490;13.434;2022-07-23T07:14:21;7.53;;;2.50;;
20478;SDS011;10398;52.490;13.434;2022-07-23T07:16:47;5.60;;;2.60;;
20478;SDS011;10398;52.490;13.434;2022-07-23T07:19:13;6.00;;;2.77;;
20478;SDS011;10398;52.490;13.434;2022-07-23T07:21:38;5.83;;;3.43;;
20478;SDS011;10398;52.490;13.434;2022-07-23T07:24:04;14.00;;;5.57;;
20478;SDS011;10398;52.490;13.434;2022-07-23T07:26:30;21.23;;;7.70;;
20478;SDS011;10398;52.490;13.434;2022-07-23T07:28:56;19.00;;;8.10;;
20478;SDS011;10398;52.490;13.434;2022-07-23T07:31:22;18.23;;;8.60;;
20478;SDS011;10398;52.490;13.434;2022-07-23T07:33:47;15.30;;;6.77;;
20478;SDS011;10398;52.490;13.434;2022-07-23T07:36:13;14.60;;;6.80;;
20478;SDS011;10398;52.490;13.434;2022-07-23T07:38:39;16.80;;;6.53;;
20478;SDS011;10398;52.490;13.434;2022-07-23T07:41:04;16.13;;;6.70;;
20478;SDS011;10398;52.490;13.434;2022-07-23T07:43:30;14.63;;;7.10;;
20478;SDS011;10398;52.490;13.434;2022-07-23T07:45:55;14.47;;;6.40;;
20478;SDS011;10398;52.490;13.434;2022-07-23T07:48:21;13.00;;;6.20;;
20478;SDS011;10398;52.490;13.434;2022-07-23T07:50:46;13.83;;;5.87;;
20478;SDS011;10398;52.490;13.434;2022-07-23T07:53:12;15.40;;;6.53;;
20478;SDS011;10398;52.490;13.434;2022-07-23T07:55:38;13.73;;;7.00;;
20478;SDS011;10398;52.490;13.434;2022-07-23T07:58:04;12.30;;;5.80;;
20478;SDS011;10398;52.490;13.434;2022-07-23T08:00:30;12.90;;;6.70;;
20478;SDS011;10398;52.490;13.434;2022-07-23T08:02:56;9.97;;;5.83;;
20478;SDS011;10398;52.490;13.434;2022-07-23T08:05:25;15.93;;;6.50;;
20478;SDS011;10398;52.490;13.434;2022-07-23T08:07:52;12.30;;;6.03;;
20478;SDS011;10398;52.490;13.434;2022-07-23T08:10:18;12.43;;;4.90;;
20478;SDS011;10398;52.490;13.434;2022-07-23T08:12:48;13.85;;;5.68;;
20478;SDS011;10398;52.490;13.434;2022-07-23T08:15:15;13.75;;;4.45;;
20478;SDS011;10398;52.490;13.434;2022-07-23T08:17:43;13.80;;;4.00;;
20478;SDS011;10398;52.490;13.434;2022-07-23T08:20:11;11.82;;;3.58;;
20478;SDS011;10398;52.490;13.434;2022-07-23T08:22:41;6.93;;;3.20;;
20478;SDS011;10398;52.490;13.434;2022-07-23T08:25:28;11.05;;;2.90;;
20478;SDS011;10398;52.490;13.434;2022-07-23T08:27:56;8.55;;;3.15;;
20478;SDS011;10398;52.490;13.434;2022-07-23T08:30:23;10.90;;;2.90;;
20478;SDS011;10398;52.490;13.434;2022-07-23T08:32:56;8.10;;;2.55;;
20478;SDS011;10398;52.490;13.434;2022-07-23T08:35:35;5.20;;;2.15;;
20478;SDS011;10398;52.490;13.434;2022-07-23T08:38:20;9.45;;;2.30;;
20478;SDS011;10398;52.490;13.434;2022-07-23T08:40:47;11.48;;;3.50;;
20478;SDS011;10398;52.490;13.434;2022-07-23T08:43:16;7.18;;;3.03;;
20478;SDS011;10398;52.490;13.434;2022-07-23T08:45:44;6.53;;;2.80;;
20478;SDS011;10398;52.490;13.434;2022-07-23T08:48:13;9.43;;;3.80;;
20478;SDS011;10398;52.490;13.434;2022-07-23T08:50:44;7.28;;;2.95;;
20478;SDS011;10398;52.490;13.434;2022-07-23T08:53:10;5.85;;;2.75;;
20478;SDS011;10398;52.490;13.434;2022-07-23T08:55:37;7.85;;;1.75;;
20478;SDS011;10398;52.490;13.434;2022-07-23T08:58:02;2.35;;;1.60;;
20478;SDS011;10398;52.490;13.434;2022-07-23T09:00:28;3.67;;;1.90;;
20478;SDS011;10398;52.490;13.434;2022-07-23T09:02:54;3.42;;;1.77;;
20478;SDS011;10398;52.490;13.434;2022-07-23T09:05:19;5.55;;;2.00;;
20478;SDS011;10398;52.490;13.434;2022-07-23T09:10:43;3.20;;;1.40;;
20478;SDS011;10398;52.490;13.434;2022-07-23T09:13:28;2.80;;;1.30;;
20478;SDS011;10398;52.490;13.434;2022-07-23T09:15:55;4.57;;;1.90;;
20478;SDS011;10398;52.490;13.434;2022-07-23T09:18:32;8.32;;;2.35;;
20478;SDS011;10398;52.490;13.434;2022-07-23T09:21:16;7.80;;;1.95;;
20478;SDS011;10398;52.490;13.434;2022-07-23T09:23:52;2.40;;;1.30;;
20478;SDS011;10398;52.490;13.434;2022-07-23T09:26:23;4.32;;;1.60;;
20478;SDS011;10398;52.490;13.434;2022-07-23T09:28:55;4.43;;;1.88;;
20478;SDS011;10398;52.490;13.434;2022-07-23T09:34:08;6.10;;;1.48;;
20478;SDS011;10398;52.490;13.434;2022-07-23T09:36:35;6.07;;;1.95;;
20478;SDS011;10398;52.490;13.434;2022-07-23T09:39:01;4.32;;;1.95;;
20478;SDS011;10398;52.490;13.434;2022-07-23T09:41:33;5.80;;;1.48;;
20478;SDS011;10398;52.490;13.434;2022-07-23T09:44:07;3.60;;;1.48;;
20478;SDS011;10398;52.490;13.434;2022-07-23T09:46:34;4.88;;;1.80;;
20478;SDS011;10398;52.490;13.434;2022-07-23T09:49:00;2.92;;;1.40;;
20478;SDS011;10398;52.490;13.434;2022-07-23T09:51:43;6.75;;;1.95;;
20478;SDS011;10398;52.490;13.434;2022-07-23T09:54:28;5.68;;;1.42;;
20478;SDS011;10398;52.490;13.434;2022-07-23T09:56:56;7.22;;;1.80;;
20478;SDS011;10398;52.490;13.434;2022-07-23T09:59:25;7.75;;;2.35;;
20478;SDS011;10398;52.490;13.434;2022-07-23T10:01:56;4.85;;;2.28;;
20478;SDS011;10398;52.490;13.434;2022-07-23T10:04:24;6.05;;;2.22;;
20478;SDS011;10398;52.490;13.434;2022-07-23T10:06:53;5.63;;;2.22;;
20478;SDS011;10398;52.490;13.434;2022-07-23T10:09:27;4.40;;;1.67;;
20478;SDS011;10398;52.490;13.434;2022-07-23T10:11:55;6.43;;;1.85;;
20478;SDS011;10398;52.490;13.434;2022-07-23T10:14:46;4.05;;;2.17;;
20478;SDS011;10398;52.490;13.434;2022-07-23T10:17:12;7.75;;;2.30;;
20478;SDS011;10398;52.490;13.434;2022-07-23T10:19:38;7.05;;;2.38;;
20478;SDS011;10398;52.490;13.434;2022-07-23T10:22:15;6.07;;;2.38;;
20478;SDS011;10398;52.490;13.434;2022-07-23T10:24:55;8.23;;;2.20;;
20478;SDS011;10398;52.490;13.434;2022-07-23T10:27:45;7.13;;;3.83;;
20478;SDS011;10398;52.490;13.434;2022-07-23T10:33:09;6.20;;;2.28;;
20478;SDS011;10398;52.490;13.434;2022-07-23T10:36:00;3.55;;;1.75;;
20478;SDS011;10398;52.490;13.434;2022-07-23T10:41:17;5.63;;;2.30;;
20478;SDS011;10398;52.490;13.434;2022-07-23T10:44:12;5.30;;;1.80;;
20478;SDS011;10398;52.490;13.434;2022-07-23T10:46:55;7.38;;;2.30;;
20478;SDS011;10398;52.490;13.434;2022-07-23T10:58:00;8.10;;;2.20;;
20478;SDS011;10398;52.490;13.434;2022-07-23T11:00:28;7.32;;;2.42;;
20478;SDS011;10398;52.490;13.434;2022-07-23T11:02:56;5.30;;;2.08;;
20478;SDS011;10398;52.490;13.434;2022-07-23T11:05:24;4.88;;;2.25;;
20478;SDS011;10398;52.490;13.434;2022-07-23T11:13:28;6.03;;;2.40;;
20478;SDS011;10398;52.490;13.434;2022-07-23T11:37:04;3.88;;;1.33;;
20478;SDS011;10398;52.490;13.434;2022-07-23T11:39:34;2.65;;;1.80;;
20478;SDS011;10398;52.490;13.434;2022-07-23T11:42:02;4.65;;;2.28;;
20478;SDS011;10398;52.490;13.434;2022-07-23T11:44:36;6.97;;;1.85;;
20478;SDS011;10398;52.490;13.434;2022-07-23T11:47:04;6.10;;;2.17;;
20478;SDS011;10398;52.490;13.434;2022-07-23T11:49:32;6.90;;;2.05;;
20478;SDS011;10398;52.490;13.434;2022-07-23T11:54:35;6.82;;;2.85;;
20478;SDS011;10398;52.490;13.434;2022-07-23T11:57:11;5.68;;;1.98;;
20478;SDS011;10398;52.490;13.434;2022-07-23T11:59:36;5.95;;;2.55;;
20478;SDS011;10398;52.490;13.434;2022-07-23T12:02:04;4.47;;;1.90;;
20478;SDS011;10398;52.490;13.434;2022-07-23T12:04:44;5.68;;;2.45;;
20478;SDS011;10398;52.490;13.434;2022-07-23T12:10:11;3.97;;;1.70;;
20478;SDS011;10398;52.490;13.434;2022-07-23T12:12:44;6.32;;;2.30;;
20478;SDS011;10398;52.490;13.434;2022-07-23T12:15:10;3.05;;;1.83;;
20478;SDS011;10398;52.490;13.434;2022-07-23T12:17:38;4.78;;;1.98;;
20478;SDS011;10398;52.490;13.434;2022-07-23T12:20:07;2.72;;;2.00;;
20478;SDS011;10398;52.490;13.434;2022-07-23T12:22:36;5.20;;;2.10;;
20478;SDS011;10398;52.490;13.434;2022-07-23T12:27:39;4.13;;;2.20;;
20478;SDS011;10398;52.490;13.434;2022-07-23T12:32:32;3.35;;;2.05;;
20478;SDS011;10398;52.490;13.434;2022-07-23T12:35:05;7.82;;;2.47;;
20478;SDS011;10398;52.490;13.434;2022-07-23T12:37:33;5.10;;;2.13;;
20478;SDS011;10398;52.490;13.434;2022-07-23T12:40:25;5.65;;;1.95;;
20478;SDS011;10398;52.490;13.434;2022-07-23T12:45:27;3.67;;;1.88;;
20478;SDS011;10398;52.490;13.434;2022-07-23T12:48:06;4.75;;;2.08;;
20478;SDS011;10398;52.490;13.434;2022-07-23T12:53:06;5.15;;;2.15;;
20478;SDS011;10398;52.490;13.434;2022-07-23T12:55:37;6.65;;;2.40;;
20478;SDS011;10398;52.490;13.434;2022-07-23T12:58:04;2.78;;;1.92;;
20478;SDS011;10398;52.490;13.434;2022-07-23T13:03:34;5.18;;;2.50;;
20478;SDS011;10398;52.490;13.434;2022-07-23T13:06:02;5.40;;;2.25;;
20478;SDS011;10398;52.490;13.434;2022-07-23T13:08:30;8.50;;;2.40;;
20478;SDS011;10398;52.490;13.434;2022-07-23T13:10:57;2.50;;;2.00;;
20478;SDS011;10398;52.490;13.434;2022-07-23T13:13:25;4.57;;;2.22;;
20478;SDS011;10398;52.490;13.434;2022-07-23T13:15:52;5.63;;;2.70;;
20478;SDS011;10398;52.490;13.434;2022-07-23T13:18:18;4.15;;;2.30;;
20478;SDS011;10398;52.490;13.434;2022-07-23T13:20:45;3.70;;;2.03;;
20478;SDS011;10398;52.490;13.434;2022-07-23T13:23:12;6.57;;;2.10;;
20478;SDS011;10398;52.490;13.434;2022-07-23T13:25:38;6.65;;;2.53;;
20478;SDS011;10398;52.490;13.434;2022-07-23T13:28:04;6.32;;;2.65;;
20478;SDS011;10398;52.490;13.434;2022-07-23T13:30:30;2.97;;;2.08;;
20478;SDS011;10398;52.490;13.434;2022-07-23T13:32:56;5.60;;;2.15;;
20478;SDS011;10398;52.490;13.434;2022-07-23T13:35:21;4.03;;;2.10;;
20478;SDS011;10398;52.490;13.434;2022-07-23T13:37:47;6.43;;;2.33;;
20478;SDS011;10398;52.490;13.434;2022-07-23T13:40:13;11.45;;;2.63;;
20478;SDS011;10398;52.490;13.434;2022-07-23T13:42:39;3.78;;;2.03;;
20478;SDS011;10398;52.490;13.434;2022-07-23T13:45:05;4.75;;;2.35;;
20478;SDS011;10398;52.490;13.434;2022-07-23T13:47:32;5.57;;;2.97;;
20478;SDS011;10398;52.490;13.434;2022-07-23T13:49:58;5.88;;;2.40;;
20478;SDS011;10398;52.490;13.434;2022-07-23T13:52:24;3.92;;;1.88;;
20478;SDS011;10398;52.490;13.434;2022-07-23T13:54:50;4.07;;;2.58;;
20478;SDS011;10398;52.490;13.434;2022-07-23T13:57:16;5.60;;;2.30;;
20478;SDS011;10398;52.490;13.434;2022-07-23T13:59:42;5.80;;;2.20;;
20478;SDS011;10398;52.490;13.434;2022-07-23T14:02:07;4.28;;;2.53;;
20478;SDS011;10398;52.490;13.434;2022-07-23T14:04:33;5.07;;;2.35;;
20478;SDS011;10398;52.490;13.434;2022-07-23T14:06:59;3.85;;;2.08;;
20478;SDS011;10398;52.490;13.434;2022-07-23T14:09:25;6.18;;;2.08;;
20478;SDS011;10398;52.490;13.434;2022-07-23T14:11:51;8.00;;;2.47;;
20478;SDS011;10398;52.490;13.434;2022-07-23T14:14:17;5.78;;;2.28;;
20478;SDS011;10398;52.490;13.434;2022-07-23T14:16:43;7.97;;;2.58;;
20478;SDS011;10398;52.490;13.434;2022-07-23T14:19:09;5.70;;;2.17;;
20478;SDS011;10398;52.490;13.434;2022-07-23T14:21:35;7.53;;;2.15;;
20478;SDS011;10398;52.490;13.434;2022-07-23T14:24:01;8.70;;;1.98;;
20478;SDS011;10398;52.490;13.434;2022-07-23T14:26:27;3.80;;;1.70;;
20478;SDS011;10398;52.490;13.434;2022-07-23T14:28:52;6.13;;;2.20;;
20478;SDS011;10398;52.490;13.434;2022-07-23T14:31:18;5.53;;;1.88;;
20478;SDS011;10398;52.490;13.434;2022-07-23T14:33:43;4.38;;;1.70;;
20478;SDS011;10398;52.490;13.434;2022-07-23T14:36:09;4.95;;;1.70;;
20478;SDS011;10398;52.490;13.434;2022-07-23T14:38:35;3.63;;;1.90;;
20478;SDS011;10398;52.490;13.434;2022-07-23T14:41:00;3.00;;;1.45;;
20478;SDS011;10398;52.490;13.434;2022-07-23T14:43:26;3.45;;;1.83;;
20478;SDS011;10398;52.490;13.434;2022-07-23T14:45:52;12.13;;;2.50;;
20478;SDS011;10398;52.490;13.434;2022-07-23T14:48:17;6.13;;;2.70;;
20478;SDS011;10398;52.490;13.434;2022-07-23T14:50:43;6.03;;;2.15;;
20478;SDS011;10398;52.490;13.434;2022-07-23T14:53:08;3.78;;;1.63;;
20478;SDS011;10398;52.490;13.434;2022-07-23T14:55:34;8.18;;;1.55;;
20478;SDS011;10398;52.490;13.434;2022-07-23T14:58:00;2.45;;;1.58;;
20478;SDS011;10398;52.490;13.434;2022-07-23T15:00:26;2.40;;;1.50;;
20478;SDS011;10398;52.490;13.434;2022-07-23T15:02:52;4.65;;;1.73;;
20478;SDS011;10398;52.490;13.434;2022-07-23T15:05:18;3.58;;;1.50;;
20478;SDS011;10398;52.490;13.434;2022-07-23T15:07:44;5.30;;;1.88;;
20478;SDS011;10398;52.490;13.434;2022-07-23T15:10:10;2.08;;;1.30;;
20478;SDS011;10398;52.490;13.434;2022-07-23T15:12:36;6.32;;;1.45;;
20478;SDS011;10398;52.490;13.434;2022-07-23T15:15:02;4.40;;;1.52;;
20478;SDS011;10398;52.490;13.434;2022-07-23T15:17:29;2.38;;;1.67;;
20478;SDS011;10398;52.490;13.434;2022-07-23T15:19:54;7.28;;;2.00;;
20478;SDS011;10398;52.490;13.434;2022-07-23T15:22:20;4.85;;;1.75;;
20478;SDS011;10398;52.490;13.434;2022-07-23T15:24:46;2.35;;;1.30;;
20478;SDS011;10398;52.490;13.434;2022-07-23T15:27:12;4.35;;;1.75;;
20478;SDS011;10398;52.490;13.434;2022-07-23T15:29:38;3.65;;;1.55;;
20478;SDS011;10398;52.490;13.434;2022-07-23T15:32:04;2.65;;;1.45;;
20478;SDS011;10398;52.490;13.434;2022-07-23T15:34:29;2.28;;;1.40;;
20478;SDS011;10398;52.490;13.434;2022-07-23T15:36:55;2.28;;;1.20;;
20478;SDS011;10398;52.490;13.434;2022-07-23T15:39:24;3.50;;;1.60;;